sensor_id;sensor_type;location;lat;lon;timestamp;pressure;altitude;pressure_sealevel;temperature;humidity
29825;BME280;16713;52.916;12.834;2022-07-29T00:01:48;101461.16;;;13.92;70.56
29825;BME280;16713;52.916;12.834;2022-07-29T00:04:15;101463.25;;;13.99;70.00
29825;BME280;16713;52.916;12.834;2022-07-29T00:06:42;101460.34;;;13.92;69.58
29825;BME280;16713;52.916;12.834;2022-07-29T00:09:09;101466.44;;;14.01;70.63
29825;BME280;16713;52.916;12.834;2022-07-29T00:11:35;101467.56;;;13.81;70.45
29825;BME280;16713;52.916;12.834;2022-07-29T00:14:02;101463.63;;;13.82;71.41
29825;BME280;16713;52.916;12.834;2022-07-29T00:16:29;101460.53;;;13.83;70.94
29825;BME280;16713;52.916;12.834;2022-07-29T00:18:55;101463.56;;;13.78;70.93
29825;BME280;16713;52.916;12.834;2022-07-29T00:21:27;101459.09;;;13.89;70.60
29825;BME280;16713;52.916;12.834;2022-07-29T00:23:53;101467.56;;;13.81;70.74
29825;BME280;16713;52.916;12.834;2022-07-29T00:26:20;101460.78;;;13.63;72.40
29825;BME280;16713;52.916;12.834;2022-07-29T00:28:46;101464.03;;;13.65;71.85
29825;BME280;16713;52.916;12.834;2022-07-29T00:31:13;101461.59;;;13.63;72.69
29825;BME280;16713;52.916;12.834;2022-07-29T00:33:39;101463.19;;;13.64;71.42
29825;BME280;16713;52.916;12.834;2022-07-29T00:36:06;101455.53;;;13.58;72.53
29825;BME280;16713;52.916;12.834;2022-07-29T00:38:32;101456.50;;;13.50;72.79
29825;BME280;16713;52.916;12.834;2022-07-29T00:40:59;101458.03;;;13.63;72.57
29825;BME280;16713;52.916;12.834;2022-07-29T00:43:25;101449.69;;;13.44;71.99
29825;BME280;16713;52.916;12.834;2022-07-29T00:45:52;101436.72;;;13.44;72.53
29825;BME280;16713;52.916;12.834;2022-07-29T00:48:18;101441.34;;;13.56;72.08
29825;BME280;16713;52.916;12.834;2022-07-29T00:50:45;101441.25;;;13.52;71.98
29825;BME280;16713;52.916;12.834;2022-07-29T00:53:12;101435.81;;;13.40;72.60
29825;BME280;16713;52.916;12.834;2022-07-29T00:55:38;101436.34;;;13.46;72.35
29825;BME280;16713;52.916;12.834;2022-07-29T00:58:06;101435.56;;;13.29;74.08
29825;BME280;16713;52.916;12.834;2022-07-29T01:00:32;101423.63;;;13.25;74.03
29825;BME280;16713;52.916;12.834;2022-07-29T01:02:59;101428.00;;;13.26;73.62
29825;BME280;16713;52.916;12.834;2022-07-29T01:05:27;101431.63;;;13.30;73.78
29825;BME280;16713;52.916;12.834;2022-07-29T01:08:15;101434.28;;;13.27;74.27
29825;BME280;16713;52.916;12.834;2022-07-29T01:10:43;101425.22;;;13.11;73.99
29825;BME280;16713;52.916;12.834;2022-07-29T01:13:10;101432.00;;;13.13;74.78
29825;BME280;16713;52.916;12.834;2022-07-29T01:15:43;101416.88;;;13.07;75.53
29825;BME280;16713;52.916;12.834;2022-07-29T01:18:22;101426.63;;;13.20;74.83
29825;BME280;16713;52.916;12.834;2022-07-29T01:26:47;101401.69;;;13.13;74.79
29825;BME280;16713;52.916;12.834;2022-07-29T01:29:21;101405.50;;;13.09;74.04
29825;BME280;16713;52.916;12.834;2022-07-29T01:32:10;101402.22;;;13.19;74.62
29825;BME280;16713;52.916;12.834;2022-07-29T01:35:17;101398.56;;;13.15;74.17
29825;BME280;16713;52.916;12.834;2022-07-29T01:38:17;101402.31;;;13.07;74.78
29825;BME280;16713;52.916;12.834;2022-07-29T01:40:51;101393.50;;;13.01;74.75
29825;BME280;16713;52.916;12.834;2022-07-29T01:43:21;101385.31;;;13.05;75.20
29825;BME280;16713;52.916;12.834;2022-07-29T01:45:56;101377.16;;;13.08;75.45
29825;BME280;16713;52.916;12.834;2022-07-29T01:48:35;101370.84;;;13.08;74.33
29825;BME280;16713;52.916;12.834;2022-07-29T01:51:33;101370.47;;;13.09;75.51
29825;BME280;16713;52.916;12.834;2022-07-29T01:54:37;101367.72;;;13.09;74.99
29825;BME280;16713;52.916;12.834;2022-07-29T01:57:08;101354.59;;;13.03;74.85
29825;BME280;16713;52.916;12.834;2022-07-29T01:59:37;101350.69;;;13.04;75.74
29825;BME280;16713;52.916;12.834;2022-07-29T02:02:06;101350.16;;;12.98;75.39
29825;BME280;16713;52.916;12.834;2022-07-29T02:04:36;101350.16;;;12.98;75.36
29825;BME280;16713;52.916;12.834;2022-07-29T02:07:09;101348.28;;;13.02;75.22
29825;BME280;16713;52.916;12.834;2022-07-29T02:09:38;101349.44;;;13.01;75.47
29825;BME280;16713;52.916;12.834;2022-07-29T02:12:07;101351.31;;;12.97;75.08
29825;BME280;16713;52.916;12.834;2022-07-29T02:14:39;101345.97;;;13.04;75.40
29825;BME280;16713;52.916;12.834;2022-07-29T02:17:07;101348.03;;;13.07;75.82
29825;BME280;16713;52.916;12.834;2022-07-29T02:19:36;101336.38;;;12.98;75.49
29825;BME280;16713;52.916;12.834;2022-07-29T02:22:04;101339.41;;;13.09;75.97
29825;BME280;16713;52.916;12.834;2022-07-29T02:24:33;101336.84;;;13.00;75.57
29825;BME280;16713;52.916;12.834;2022-07-29T02:27:02;101337.44;;;13.09;75.81
29825;BME280;16713;52.916;12.834;2022-07-29T02:29:30;101341.88;;;12.98;76.04
29825;BME280;16713;52.916;12.834;2022-07-29T02:31:58;101341.63;;;13.03;75.34
29825;BME280;16713;52.916;12.834;2022-07-29T02:34:26;101345.97;;;13.04;75.65
29825;BME280;16713;52.916;12.834;2022-07-29T02:36:55;101344.97;;;13.12;75.08
29825;BME280;16713;52.916;12.834;2022-07-29T02:39:24;101346.25;;;12.99;75.68
29825;BME280;16713;52.916;12.834;2022-07-29T02:41:55;101338.06;;;12.87;76.45
29825;BME280;16713;52.916;12.834;2022-07-29T02:44:24;101345.78;;;13.13;75.97
29825;BME280;16713;52.916;12.834;2022-07-29T02:46:53;101347.50;;;13.02;75.25
29825;BME280;16713;52.916;12.834;2022-07-29T02:51:57;101338.63;;;12.93;75.67
29825;BME280;16713;52.916;12.834;2022-07-29T02:57:33;101334.06;;;13.00;75.40
29825;BME280;16713;52.916;12.834;2022-07-29T03:00:21;101335.88;;;12.93;76.20
29825;BME280;16713;52.916;12.834;2022-07-29T03:02:51;101333.97;;;12.97;76.06
29825;BME280;16713;52.916;12.834;2022-07-29T03:05:20;101332.03;;;12.97;76.55
29825;BME280;16713;52.916;12.834;2022-07-29T03:07:57;101330.88;;;12.98;75.61
29825;BME280;16713;52.916;12.834;2022-07-29T03:10:25;101314.09;;;12.88;76.26
29825;BME280;16713;52.916;12.834;2022-07-29T03:12:54;101323.31;;;12.95;76.34
29825;BME280;16713;52.916;12.834;2022-07-29T03:15:21;101322.34;;;13.03;76.46
29825;BME280;16713;52.916;12.834;2022-07-29T03:17:50;101322.78;;;13.05;75.05
29825;BME280;16713;52.916;12.834;2022-07-29T03:20:18;101325.00;;;13.00;75.83
29825;BME280;16713;52.916;12.834;2022-07-29T03:22:45;101321.72;;;13.10;75.73
29825;BME280;16713;52.916;12.834;2022-07-29T03:25:16;101324.84;;;13.08;76.15
29825;BME280;16713;52.916;12.834;2022-07-29T03:27:43;101315.75;;;13.08;76.13
29825;BME280;16713;52.916;12.834;2022-07-29T03:30:11;101317.66;;;13.04;76.11
29825;BME280;16713;52.916;12.834;2022-07-29T03:32:48;101312.50;;;13.02;75.62
29825;BME280;16713;52.916;12.834;2022-07-29T03:35:17;101317.16;;;13.17;75.30
29825;BME280;16713;52.916;12.834;2022-07-29T03:37:44;101314.78;;;13.16;75.25
29825;BME280;16713;52.916;12.834;2022-07-29T03:40:32;101318.16;;;13.09;76.00
29825;BME280;16713;52.916;12.834;2022-07-29T03:43:00;101305.19;;;13.10;75.27
29825;BME280;16713;52.916;12.834;2022-07-29T03:45:28;101307.06;;;13.21;74.91
29825;BME280;16713;52.916;12.834;2022-07-29T03:48:01;101306.69;;;13.23;74.61
29825;BME280;16713;52.916;12.834;2022-07-29T03:50:29;101313.78;;;13.24;75.38
29825;BME280;16713;52.916;12.834;2022-07-29T03:52:57;101301.63;;;13.25;74.88
29825;BME280;16713;52.916;12.834;2022-07-29T03:55:24;101303.94;;;13.23;74.98
29825;BME280;16713;52.916;12.834;2022-07-29T03:57:51;101295.34;;;13.09;75.45
29825;BME280;16713;52.916;12.834;2022-07-29T04:00:18;101297.16;;;13.20;75.88
29825;BME280;16713;52.916;12.834;2022-07-29T04:02:45;101299.38;;;13.30;75.24
29825;BME280;16713;52.916;12.834;2022-07-29T04:05:15;101293.16;;;13.33;75.69
29825;BME280;16713;52.916;12.834;2022-07-29T04:07:46;101299.16;;;13.20;75.53
29825;BME280;16713;52.916;12.834;2022-07-29T04:10:16;101298.94;;;13.28;75.88
29825;BME280;16713;52.916;12.834;2022-07-29T04:12:58;101296.34;;;13.35;75.43
29825;BME280;16713;52.916;12.834;2022-07-29T04:15:25;101300.38;;;13.38;75.10
29825;BME280;16713;52.916;12.834;2022-07-29T04:17:57;101295.19;;;13.36;75.65
29825;BME280;16713;52.916;12.834;2022-07-29T04:20:23;101299.19;;;13.39;75.68
29825;BME280;16713;52.916;12.834;2022-07-29T04:22:50;101303.44;;;13.36;75.03
29825;BME280;16713;52.916;12.834;2022-07-29T04:25:16;101304.06;;;13.46;73.98
29825;BME280;16713;52.916;12.834;2022-07-29T04:27:43;101299.78;;;13.48;75.33
29825;BME280;16713;52.916;12.834;2022-07-29T04:30:26;101306.97;;;13.53;73.99
29825;BME280;16713;52.916;12.834;2022-07-29T04:32:53;101310.63;;;13.57;74.94
29825;BME280;16713;52.916;12.834;2022-07-29T04:35:20;101318.09;;;13.56;74.59
29825;BME280;16713;52.916;12.834;2022-07-29T04:37:47;101321.66;;;13.57;74.66
29825;BME280;16713;52.916;12.834;2022-07-29T04:40:13;101311.69;;;13.52;74.88
29825;BME280;16713;52.916;12.834;2022-07-29T04:42:40;101316.50;;;13.55;75.84
29825;BME280;16713;52.916;12.834;2022-07-29T04:45:12;101326.63;;;13.51;74.84
29825;BME280;16713;52.916;12.834;2022-07-29T04:47:39;101323.19;;;13.54;74.35
29825;BME280;16713;52.916;12.834;2022-07-29T04:50:08;101324.41;;;13.57;75.25
29825;BME280;16713;52.916;12.834;2022-07-29T04:52:35;101327.97;;;13.57;75.12
29825;BME280;16713;52.916;12.834;2022-07-29T04:55:02;101321.81;;;13.64;74.23
29825;BME280;16713;52.916;12.834;2022-07-29T04:57:29;101316.91;;;13.73;74.93
29825;BME280;16713;52.916;12.834;2022-07-29T04:59:55;101313.91;;;13.62;74.33
29825;BME280;16713;52.916;12.834;2022-07-29T05:02:22;101313.72;;;13.71;74.09
29825;BME280;16713;52.916;12.834;2022-07-29T05:04:49;101311.75;;;13.71;74.60
29825;BME280;16713;52.916;12.834;2022-07-29T05:07:15;101311.03;;;13.74;75.38
29825;BME280;16713;52.916;12.834;2022-07-29T05:09:42;101309.09;;;13.94;74.34
29825;BME280;16713;52.916;12.834;2022-07-29T05:12:08;101313.16;;;14.00;73.77
29825;BME280;16713;52.916;12.834;2022-07-29T05:14:35;101311.69;;;14.06;73.90
29825;BME280;16713;52.916;12.834;2022-07-29T05:17:02;101307.44;;;14.08;73.46
29825;BME280;16713;52.916;12.834;2022-07-29T05:19:28;101305.88;;;14.11;74.76
29825;BME280;16713;52.916;12.834;2022-07-29T05:21:55;101311.56;;;14.18;74.51
29825;BME280;16713;52.916;12.834;2022-07-29T05:24:21;101300.59;;;14.21;74.37
29825;BME280;16713;52.916;12.834;2022-07-29T05:26:48;101306.41;;;14.16;72.97
29825;BME280;16713;52.916;12.834;2022-07-29T05:29:14;101315.53;;;14.20;73.72
29825;BME280;16713;52.916;12.834;2022-07-29T05:32:01;101319.66;;;14.30;74.32
29825;BME280;16713;52.916;12.834;2022-07-29T05:34:30;101307.19;;;14.36;72.81
29825;BME280;16713;52.916;12.834;2022-07-29T05:36:57;101309.44;;;14.30;73.93
29825;BME280;16713;52.916;12.834;2022-07-29T05:39:24;101308.78;;;14.37;73.78
29825;BME280;16713;52.916;12.834;2022-07-29T05:42:10;101312.97;;;14.50;74.78
29825;BME280;16713;52.916;12.834;2022-07-29T05:44:40;101308.59;;;14.49;73.01
29825;BME280;16713;52.916;12.834;2022-07-29T05:47:07;101308.53;;;14.64;73.20
29825;BME280;16713;52.916;12.834;2022-07-29T05:49:33;101312.66;;;14.74;73.56
29825;BME280;16713;52.916;12.834;2022-07-29T05:52:00;101307.22;;;14.81;73.00
29825;BME280;16713;52.916;12.834;2022-07-29T05:54:26;101307.66;;;14.83;73.06
29825;BME280;16713;52.916;12.834;2022-07-29T05:56:53;101310.88;;;14.85;72.27
29825;BME280;16713;52.916;12.834;2022-07-29T05:59:19;101312.06;;;14.88;72.53
29825;BME280;16713;52.916;12.834;2022-07-29T06:01:46;101315.78;;;14.95;71.91
29825;BME280;16713;52.916;12.834;2022-07-29T06:04:13;101310.72;;;15.01;71.21
29825;BME280;16713;52.916;12.834;2022-07-29T06:06:40;101321.09;;;15.07;70.56
29825;BME280;16713;52.916;12.834;2022-07-29T06:09:06;101318.75;;;15.09;71.07
29825;BME280;16713;52.916;12.834;2022-07-29T06:11:37;101321.09;;;15.07;71.95
29825;BME280;16713;52.916;12.834;2022-07-29T06:14:04;101326.91;;;14.99;70.87
29825;BME280;16713;52.916;12.834;2022-07-29T06:16:30;101325.13;;;15.13;70.82
29825;BME280;16713;52.916;12.834;2022-07-29T06:18:57;101323.50;;;15.09;71.10
29825;BME280;16713;52.916;12.834;2022-07-29T06:21:23;101325.13;;;15.13;71.39
29825;BME280;16713;52.916;12.834;2022-07-29T06:23:50;101324.66;;;15.08;71.08
29825;BME280;16713;52.916;12.834;2022-07-29T06:26:16;101325.19;;;15.17;71.08
29825;BME280;16713;52.916;12.834;2022-07-29T06:28:43;101324.81;;;15.18;71.60
29825;BME280;16713;52.916;12.834;2022-07-29T06:31:11;101326.81;;;15.18;71.06
29825;BME280;16713;52.916;12.834;2022-07-29T06:33:38;101342.53;;;15.14;72.39
29825;BME280;16713;52.916;12.834;2022-07-29T06:36:05;101344.16;;;15.18;71.50
29825;BME280;16713;52.916;12.834;2022-07-29T06:38:33;101341.38;;;15.15;72.86
29825;BME280;16713;52.916;12.834;2022-07-29T06:41:08;101345.09;;;15.26;72.12
29825;BME280;16713;52.916;12.834;2022-07-29T06:43:39;101341.00;;;15.42;71.88
29825;BME280;16713;52.916;12.834;2022-07-29T06:46:20;101344.03;;;15.56;71.29
29825;BME280;16713;52.916;12.834;2022-07-29T06:48:48;101346.81;;;15.60;72.71
29825;BME280;16713;52.916;12.834;2022-07-29T06:51:15;101334.75;;;15.71;71.07
29825;BME280;16713;52.916;12.834;2022-07-29T06:53:50;101339.84;;;15.69;69.81
29825;BME280;16713;52.916;12.834;2022-07-29T06:56:27;101348.44;;;15.90;70.39
29825;BME280;16713;52.916;12.834;2022-07-29T06:58:53;101339.44;;;15.97;70.09
29825;BME280;16713;52.916;12.834;2022-07-29T07:01:20;101349.38;;;16.01;70.63
29825;BME280;16713;52.916;12.834;2022-07-29T07:03:47;101357.31;;;16.03;69.58
29825;BME280;16713;52.916;12.834;2022-07-29T07:06:13;101355.00;;;16.08;69.96
29825;BME280;16713;52.916;12.834;2022-07-29T07:08:40;101361.47;;;16.20;69.77
29825;BME280;16713;52.916;12.834;2022-07-29T07:11:07;101357.28;;;16.33;68.96
29825;BME280;16713;52.916;12.834;2022-07-29T07:13:34;101358.56;;;16.39;68.61
29825;BME280;16713;52.916;12.834;2022-07-29T07:16:03;101363.38;;;16.45;68.29
29825;BME280;16713;52.916;12.834;2022-07-29T07:18:30;101357.94;;;16.52;68.29
29825;BME280;16713;52.916;12.834;2022-07-29T07:20:57;101350.91;;;16.62;68.27
29825;BME280;16713;52.916;12.834;2022-07-29T07:23:24;101353.78;;;16.69;67.59
29825;BME280;16713;52.916;12.834;2022-07-29T07:25:51;101350.97;;;16.65;67.88
29825;BME280;16713;52.916;12.834;2022-07-29T07:28:18;101360.59;;;16.82;67.05
29825;BME280;16713;52.916;12.834;2022-07-29T07:30:50;101355.97;;;16.93;67.35
29825;BME280;16713;52.916;12.834;2022-07-29T07:33:18;101357.03;;;17.18;68.39
29825;BME280;16713;52.916;12.834;2022-07-29T07:35:44;101366.28;;;17.36;66.59
29825;BME280;16713;52.916;12.834;2022-07-29T07:38:11;101373.13;;;17.53;65.27
29825;BME280;16713;52.916;12.834;2022-07-29T07:40:38;101362.97;;;17.74;64.67
29825;BME280;16713;52.916;12.834;2022-07-29T07:43:04;101370.94;;;17.79;63.49
29825;BME280;16713;52.916;12.834;2022-07-29T07:45:31;101369.09;;;17.97;63.45
29825;BME280;16713;52.916;12.834;2022-07-29T07:47:59;101372.78;;;18.26;63.66
29825;BME280;16713;52.916;12.834;2022-07-29T07:50:26;101379.16;;;18.33;63.38
29825;BME280;16713;52.916;12.834;2022-07-29T07:52:54;101379.59;;;18.49;62.27
29825;BME280;16713;52.916;12.834;2022-07-29T07:55:25;101379.31;;;18.72;63.76
29825;BME280;16713;52.916;12.834;2022-07-29T07:57:52;101380.50;;;18.81;63.06
29825;BME280;16713;52.916;12.834;2022-07-29T08:00:19;101380.13;;;18.97;63.51
29825;BME280;16713;52.916;12.834;2022-07-29T08:02:48;101384.13;;;19.00;61.23
29825;BME280;16713;52.916;12.834;2022-07-29T08:05:16;101382.16;;;19.11;61.19
29825;BME280;16713;52.916;12.834;2022-07-29T08:07:46;101377.78;;;19.10;60.07
29825;BME280;16713;52.916;12.834;2022-07-29T08:10:15;101379.38;;;19.18;59.55
29825;BME280;16713;52.916;12.834;2022-07-29T08:13:11;101371.81;;;19.36;60.36
29825;BME280;16713;52.916;12.834;2022-07-29T08:15:38;101386.16;;;19.48;60.28
29825;BME280;16713;52.916;12.834;2022-07-29T08:18:05;101383.75;;;19.61;60.49
29825;BME280;16713;52.916;12.834;2022-07-29T08:20:35;101385.34;;;19.72;60.19
29825;BME280;16713;52.916;12.834;2022-07-29T08:23:02;101381.72;;;19.86;62.24
29825;BME280;16713;52.916;12.834;2022-07-29T08:25:29;101381.31;;;19.87;59.57
29825;BME280;16713;52.916;12.834;2022-07-29T08:27:55;101384.91;;;19.88;58.72
29825;BME280;16713;52.916;12.834;2022-07-29T08:30:22;101388.03;;;19.97;58.78
29825;BME280;16713;52.916;12.834;2022-07-29T08:32:49;101395.94;;;20.16;58.76
29825;BME280;16713;52.916;12.834;2022-07-29T08:35:21;101390.31;;;20.37;60.16
29825;BME280;16713;52.916;12.834;2022-07-29T08:37:48;101393.06;;;20.44;57.32
29825;BME280;16713;52.916;12.834;2022-07-29T08:40:15;101398.97;;;20.60;56.87
29825;BME280;16713;52.916;12.834;2022-07-29T08:42:41;101394.13;;;20.75;57.27
29825;BME280;16713;52.916;12.834;2022-07-29T08:45:08;101403.59;;;20.91;60.25
29825;BME280;16713;52.916;12.834;2022-07-29T08:47:35;101396.84;;;20.82;56.39
29825;BME280;16713;52.916;12.834;2022-07-29T08:50:07;101394.84;;;20.93;56.92
29825;BME280;16713;52.916;12.834;2022-07-29T08:52:36;101392.81;;;20.97;56.56
29825;BME280;16713;52.916;12.834;2022-07-29T08:55:05;101399.50;;;21.06;56.24
29825;BME280;16713;52.916;12.834;2022-07-29T08:57:33;101397.50;;;21.10;56.55
29825;BME280;16713;52.916;12.834;2022-07-29T09:00:05;101393.44;;;21.18;55.51
29825;BME280;16713;52.916;12.834;2022-07-29T09:02:40;101400.19;;;21.21;55.07
29825;BME280;16713;52.916;12.834;2022-07-29T09:05:12;101394.97;;;21.26;53.53
29825;BME280;16713;52.916;12.834;2022-07-29T09:07:39;101387.81;;;21.22;54.63
29825;BME280;16713;52.916;12.834;2022-07-29T09:10:06;101386.22;;;21.24;53.53
29825;BME280;16713;52.916;12.834;2022-07-29T09:12:33;101389.00;;;21.24;54.58
29825;BME280;16713;52.916;12.834;2022-07-29T09:15:03;101386.97;;;21.28;54.76
29825;BME280;16713;52.916;12.834;2022-07-29T09:17:41;101389.75;;;21.28;54.97
29825;BME280;16713;52.916;12.834;2022-07-29T09:20:10;101388.13;;;21.34;55.64
29825;BME280;16713;52.916;12.834;2022-07-29T09:22:37;101375.75;;;21.35;54.23
29825;BME280;16713;52.916;12.834;2022-07-29T09:25:07;101380.88;;;21.44;53.51
29825;BME280;16713;52.916;12.834;2022-07-29T09:27:34;101379.59;;;21.52;54.23
29825;BME280;16713;52.916;12.834;2022-07-29T09:30:04;101387.09;;;21.62;55.47
29825;BME280;16713;52.916;12.834;2022-07-29T09:32:33;101385.75;;;21.77;54.04
29825;BME280;16713;52.916;12.834;2022-07-29T09:35:20;101377.66;;;21.86;52.18
29825;BME280;16713;52.916;12.834;2022-07-29T09:37:47;101382.75;;;21.95;52.87
29825;BME280;16713;52.916;12.834;2022-07-29T09:40:20;101383.41;;;22.09;54.28
29825;BME280;16713;52.916;12.834;2022-07-29T09:42:48;101382.53;;;22.16;53.06
29825;BME280;16713;52.916;12.834;2022-07-29T09:45:26;101373.69;;;22.24;50.49
29825;BME280;16713;52.916;12.834;2022-07-29T09:47:53;101371.13;;;22.37;50.87
29825;BME280;16713;52.916;12.834;2022-07-29T09:50:21;101368.63;;;22.42;50.70
29825;BME280;16713;52.916;12.834;2022-07-29T09:52:52;101359.69;;;22.54;50.21
29825;BME280;16713;52.916;12.834;2022-07-29T09:55:19;101361.31;;;22.52;46.75
29825;BME280;16713;52.916;12.834;2022-07-29T09:57:46;101356.44;;;22.59;48.22
29825;BME280;16713;52.916;12.834;2022-07-29T10:00:16;101353.03;;;22.71;46.54
29825;BME280;16713;52.916;12.834;2022-07-29T10:02:45;101347.41;;;22.75;48.54
29825;BME280;16713;52.916;12.834;2022-07-29T10:05:23;101357.63;;;22.88;47.50
29825;BME280;16713;52.916;12.834;2022-07-29T10:07:52;101347.91;;;22.97;46.25
29825;BME280;16713;52.916;12.834;2022-07-29T10:10:27;101347.72;;;23.07;45.68
29825;BME280;16713;52.916;12.834;2022-07-29T10:13:01;101354.88;;;23.08;45.11
29825;BME280;16713;52.916;12.834;2022-07-29T10:15:36;101354.13;;;23.08;43.75
29825;BME280;16713;52.916;12.834;2022-07-29T10:18:06;101352.88;;;23.09;42.26
29825;BME280;16713;52.916;12.834;2022-07-29T10:20:33;101345.47;;;23.22;44.42
29825;BME280;16713;52.916;12.834;2022-07-29T10:23:00;101353.81;;;23.25;42.49
29825;BME280;16713;52.916;12.834;2022-07-29T10:25:27;101351.25;;;23.34;42.94
29825;BME280;16713;52.916;12.834;2022-07-29T10:27:53;101347.09;;;23.42;42.23
29825;BME280;16713;52.916;12.834;2022-07-29T10:30:22;101352.13;;;23.54;40.50
29825;BME280;16713;52.916;12.834;2022-07-29T10:36:10;101360.31;;;23.65;41.78
29825;BME280;16713;52.916;12.834;2022-07-29T10:44:03;101357.09;;;23.66;41.24
29825;BME280;16713;52.916;12.834;2022-07-29T10:46:36;101360.81;;;23.60;41.77
29825;BME280;16713;52.916;12.834;2022-07-29T10:54:17;101353.44;;;23.46;41.13
29825;BME280;16713;52.916;12.834;2022-07-29T10:56:44;101349.25;;;23.35;41.23
29825;BME280;16713;52.916;12.834;2022-07-29T11:01:47;101344.25;;;23.23;41.30
29825;BME280;16713;52.916;12.834;2022-07-29T11:07:10;101334.47;;;23.11;42.90
29825;BME280;16713;52.916;12.834;2022-07-29T11:15:22;101341.75;;;23.28;40.45
29825;BME280;16713;52.916;12.834;2022-07-29T11:28:59;101328.31;;;23.43;41.33
29825;BME280;16713;52.916;12.834;2022-07-29T11:31:34;101333.53;;;23.41;42.07
29825;BME280;16713;52.916;12.834;2022-07-29T11:45:21;101325.78;;;23.71;40.32
29825;BME280;16713;52.916;12.834;2022-07-29T11:48:16;101326.00;;;23.80;39.40
29825;BME280;16713;52.916;12.834;2022-07-29T11:50:58;101326.00;;;23.80;39.27
29825;BME280;16713;52.916;12.834;2022-07-29T11:53:25;101319.69;;;23.76;38.08
29825;BME280;16713;52.916;12.834;2022-07-29T11:55:58;101320.41;;;23.80;39.23
29825;BME280;16713;52.916;12.834;2022-07-29T11:58:25;101327.03;;;23.90;39.60
29825;BME280;16713;52.916;12.834;2022-07-29T12:00:52;101323.06;;;23.87;39.95
29825;BME280;16713;52.916;12.834;2022-07-29T12:03:39;101319.13;;;23.85;39.09
29825;BME280;16713;52.916;12.834;2022-07-29T12:06:12;101322.63;;;23.89;40.44
29825;BME280;16713;52.916;12.834;2022-07-29T12:08:43;101325.44;;;23.89;39.63
29825;BME280;16713;52.916;12.834;2022-07-29T12:11:18;101319.75;;;23.92;40.95
29825;BME280;16713;52.916;12.834;2022-07-29T12:13:47;101313.50;;;24.04;38.71
29825;BME280;16713;52.916;12.834;2022-07-29T12:16:15;101309.13;;;24.03;39.49
29825;BME280;16713;52.916;12.834;2022-07-29T12:19:00;101306.47;;;24.16;40.60
29825;BME280;16713;52.916;12.834;2022-07-29T12:21:29;101299.47;;;24.04;39.24
29825;BME280;16713;52.916;12.834;2022-07-29T12:23:57;101301.66;;;24.16;39.16
29825;BME280;16713;52.916;12.834;2022-07-29T12:26:32;101301.66;;;24.16;39.89
29825;BME280;16713;52.916;12.834;2022-07-29T12:29:00;101287.34;;;24.11;38.85
29825;BME280;16713;52.916;12.834;2022-07-29T12:31:28;101286.59;;;24.10;39.20
29825;BME280;16713;52.916;12.834;2022-07-29T12:34:11;101292.00;;;24.17;39.35
29825;BME280;16713;52.916;12.834;2022-07-29T12:36:39;101282.47;;;24.15;38.98
29825;BME280;16713;52.916;12.834;2022-07-29T12:39:05;101283.72;;;24.14;39.48
29825;BME280;16713;52.916;12.834;2022-07-29T12:41:32;101280.91;;;24.14;38.16
29825;BME280;16713;52.916;12.834;2022-07-29T12:43:59;101281.91;;;24.23;37.84
29825;BME280;16713;52.916;12.834;2022-07-29T12:46:25;101280.28;;;24.22;38.43
29825;BME280;16713;52.916;12.834;2022-07-29T12:48:53;101286.34;;;24.21;38.42
29825;BME280;16713;52.916;12.834;2022-07-29T12:51:31;101273.69;;;24.13;39.40
29825;BME280;16713;52.916;12.834;2022-07-29T12:56:31;101269.19;;;23.99;39.48
29825;BME280;16713;52.916;12.834;2022-07-29T13:01:39;101262.91;;;24.11;39.53
29825;BME280;16713;52.916;12.834;2022-07-29T13:04:05;101273.84;;;24.06;40.17
29825;BME280;16713;52.916;12.834;2022-07-29T13:09:17;101240.78;;;23.97;39.43
29825;BME280;16713;52.916;12.834;2022-07-29T13:11:52;101244.47;;;23.94;39.57
29825;BME280;16713;52.916;12.834;2022-07-29T13:14:34;101249.56;;;23.99;40.28
29825;BME280;16713;52.916;12.834;2022-07-29T13:17:03;101242.34;;;23.98;40.17
29825;BME280;16713;52.916;12.834;2022-07-29T13:22:18;101228.47;;;24.11;39.43
29825;BME280;16713;52.916;12.834;2022-07-29T13:24:58;101233.94;;;24.18;39.86
29825;BME280;16713;52.916;12.834;2022-07-29T13:27:26;101229.75;;;24.06;39.89
29825;BME280;16713;52.916;12.834;2022-07-29T13:29:55;101231.06;;;24.02;39.63
29825;BME280;16713;52.916;12.834;2022-07-29T13:32:25;101232.19;;;24.04;38.88
29825;BME280;16713;52.916;12.834;2022-07-29T13:34:55;101221.88;;;24.01;40.18
29825;BME280;16713;52.916;12.834;2022-07-29T13:37:22;101225.03;;;24.03;40.14
29825;BME280;16713;52.916;12.834;2022-07-29T13:39:48;101224.66;;;24.01;40.31
29825;BME280;16713;52.916;12.834;2022-07-29T13:42:18;101227.84;;;24.03;40.08
29825;BME280;16713;52.916;12.834;2022-07-29T13:44:45;101216.84;;;24.12;39.90
29825;BME280;16713;52.916;12.834;2022-07-29T13:47:11;101218.78;;;24.15;39.52
29825;BME280;16713;52.916;12.834;2022-07-29T13:49:38;101216.50;;;24.10;39.34
29825;BME280;16713;52.916;12.834;2022-07-29T13:52:05;101211.00;;;24.03;40.47
29825;BME280;16713;52.916;12.834;2022-07-29T13:54:33;101218.94;;;24.08;39.08
29825;BME280;16713;52.916;12.834;2022-07-29T13:57:08;101202.47;;;24.10;39.68
29825;BME280;16713;52.916;12.834;2022-07-29T13:59:37;101204.59;;;24.03;40.53
29825;BME280;16713;52.916;12.834;2022-07-29T14:02:03;101198.50;;;24.08;40.12
29825;BME280;16713;52.916;12.834;2022-07-29T14:04:32;101199.41;;;24.21;40.33